Lake Worth, Texas
Current Conditions -  °F | °C
As of 4:53 PM on Wednesday 26 Nov 2014 (Local Time) from KFTW Reporting Station
Clear Clear  
Wind Chill: 62°   Ceiling: Unl
Heat Index: 62°   Visibility: 10mi
Dew Point: 35°   Wind: 12mph
Humidity: 37%   Direction: 320°NW
Pressure: 30.23"   Gusts: NA
Location:  32.8974°N, 97.4578°W
Report Text: KFTW 262253Z 32010KT 10SM CLR 17/02 A3023 RMK AO2 SLP236 T01670017
Loading
Personal Weather Stations






























Interactive Weather Map New forecast layout! Learn more

10-Day Weather Forecast

Advertisements
Track Severe Weather on mobile